createdAt,value
2023-03-16T00:02:44.067Z,28.67
2023-03-16T00:05:33.240Z,34.10
2023-03-16T00:08:22.083Z,35.40
2023-03-16T00:11:12.802Z,27.30
2023-03-16T00:14:04.259Z,29.23
2023-03-16T00:16:53.505Z,29.90
2023-03-16T00:19:46.998Z,33.50
2023-03-16T00:22:35.655Z,31.90
2023-03-16T00:25:24.454Z,27.60
2023-03-16T00:28:14.583Z,32.53
2023-03-16T00:31:04.090Z,32.60
2023-03-16T00:33:52.942Z,31.67
2023-03-16T00:36:42.803Z,25.27
2023-03-16T00:39:35.684Z,26.57
2023-03-16T00:42:28.211Z,29.03
2023-03-16T00:45:18.486Z,27.20
2023-03-16T00:48:08.072Z,31.40
2023-03-16T00:50:57.087Z,30.07
2023-03-16T00:53:47.241Z,33.00
2023-03-16T00:56:36.035Z,24.97
2023-03-16T00:59:26.265Z,27.27
2023-03-16T01:02:19.431Z,24.93
2023-03-16T01:05:09.627Z,24.37
2023-03-16T01:07:59.980Z,26.07
2023-03-16T01:10:48.803Z,26.53
2023-03-16T01:13:38.213Z,24.87
2023-03-16T01:16:27.589Z,29.23
2023-03-16T01:19:17.868Z,30.40
2023-03-16T01:22:07.896Z,25.47
2023-03-16T01:24:56.636Z,24.77
2023-03-16T01:27:45.341Z,25.80
2023-03-16T01:30:35.750Z,24.70
2023-03-16T01:33:26.070Z,26.27
2023-03-16T01:36:21.750Z,32.10
2023-03-16T01:39:21.210Z,28.23
2023-03-16T01:42:11.864Z,27.17
2023-03-16T01:45:05.797Z,29.77
2023-03-16T01:47:59.567Z,25.23
2023-03-16T01:50:49.462Z,24.03
2023-03-16T01:53:41.481Z,28.53
2023-03-16T01:56:35.910Z,26.00
2023-03-16T01:59:29.970Z,28.93
2023-03-16T02:02:22.405Z,24.33
2023-03-16T02:05:15.319Z,25.87
2023-03-16T02:08:05.721Z,29.40
2023-03-16T02:11:09.674Z,24.60
2023-03-16T02:14:19.318Z,27.40
2023-03-16T02:17:08.814Z,24.17
2023-03-16T02:20:11.369Z,25.07
2023-03-16T02:23:01.895Z,24.03
2023-03-16T02:25:58.893Z,25.23
2023-03-16T02:29:01.320Z,25.23
2023-03-16T02:31:54.915Z,20.50
2023-03-16T02:34:44.222Z,22.93
2023-03-16T02:37:35.058Z,25.30
2023-03-16T02:40:28.998Z,26.53
2023-03-16T02:43:25.344Z,23.67
2023-03-16T02:46:28.961Z,23.00
2023-03-16T02:49:25.040Z,21.03
2023-03-16T02:52:14.028Z,27.60
2023-03-16T02:55:03.217Z,26.97
2023-03-16T02:57:52.381Z,26.23
2023-03-16T03:00:42.427Z,24.03
2023-03-16T03:03:34.418Z,29.53
2023-03-16T03:06:25.366Z,23.37
2023-03-16T03:09:14.579Z,27.73
2023-03-16T03:12:05.032Z,28.53
2023-03-16T03:14:54.324Z,25.97
2023-03-16T03:17:43.772Z,27.57
2023-03-16T03:20:32.822Z,26.67
2023-03-16T03:23:23.777Z,27.57
2023-03-16T03:26:16.354Z,27.97
2023-03-16T03:29:07.546Z,29.73
2023-03-16T03:31:56.603Z,28.43
2023-03-16T03:34:45.368Z,25.93
2023-03-16T03:37:34.567Z,28.30
2023-03-16T03:40:24.714Z,27.23
2023-03-16T03:43:27.668Z,26.83
2023-03-16T03:46:16.707Z,28.73
2023-03-16T03:49:05.704Z,28.77
2023-03-16T03:51:59.141Z,29.93
2023-03-16T03:54:48.730Z,27.63
2023-03-16T03:57:41.135Z,28.43
2023-03-16T04:00:30.089Z,30.57
2023-03-16T04:03:19.401Z,27.83
2023-03-16T04:06:08.627Z,36.20
2023-03-16T04:08:57.901Z,30.93
2023-03-16T04:11:49.098Z,24.87
2023-03-16T04:14:39.390Z,29.93
2023-03-16T04:17:30.956Z,26.87
2023-03-16T04:20:23.571Z,29.30
2023-03-16T04:23:12.712Z,27.67
2023-03-16T04:26:03.936Z,26.70
2023-03-16T04:28:53.793Z,29.93
2023-03-16T04:31:44.290Z,31.07
2023-03-16T04:34:33.426Z,39.57
2023-03-16T04:37:25.736Z,38.03
2023-03-16T04:40:19.550Z,39.00
2023-03-16T04:43:14.370Z,37.30
2023-03-16T04:46:05.994Z,30.30
2023-03-16T04:48:58.509Z,37.10
2023-03-16T04:51:49.167Z,35.43
2023-03-16T04:54:41.100Z,34.37
2023-03-16T04:57:31.198Z,31.30
2023-03-16T05:00:21.804Z,30.60
2023-03-16T05:03:21.795Z,30.17
2023-03-16T05:06:13.445Z,33.17
2023-03-16T05:09:05.935Z,30.27
2023-03-16T05:11:57.556Z,36.47
2023-03-16T05:14:46.383Z,33.47
2023-03-16T05:17:46.732Z,31.03
2023-03-16T05:20:36.423Z,30.27
2023-03-16T05:23:27.753Z,32.90
2023-03-16T05:26:21.975Z,32.90
2023-03-16T05:29:11.918Z,32.70
2023-03-16T05:32:01.151Z,34.23
2023-03-16T05:34:53.258Z,27.30
2023-03-16T05:37:43.804Z,34.53
2023-03-16T05:40:38.547Z,30.73
2023-03-16T05:43:37.760Z,33.47
2023-03-16T05:46:27.249Z,29.07
2023-03-16T05:49:17.319Z,31.27
2023-03-16T05:52:09.795Z,36.87
2023-03-16T05:54:58.794Z,31.00
2023-03-16T05:57:49.584Z,31.67
2023-03-16T06:00:39.515Z,32.20
2023-03-16T06:03:43.324Z,30.53
2023-03-16T06:06:36.493Z,34.53
2023-03-16T06:09:34.405Z,35.10
2023-03-16T06:12:28.383Z,29.57
2023-03-16T06:15:18.705Z,37.77
2023-03-16T06:18:08.277Z,32.17
2023-03-16T06:20:57.504Z,29.70
2023-03-16T06:23:46.852Z,28.43
2023-03-16T06:26:36.950Z,33.27
2023-03-16T06:29:28.298Z,34.33
2023-03-16T06:32:18.589Z,30.27
2023-03-16T06:35:08.086Z,31.03
2023-03-16T06:37:56.800Z,24.47
2023-03-16T06:41:04.160Z,29.73
2023-03-16T06:43:56.018Z,29.30
2023-03-16T06:46:44.929Z,31.77
2023-03-16T06:49:35.682Z,31.97
2023-03-16T06:52:29.067Z,29.03
2023-03-16T06:55:18.225Z,33.57
2023-03-16T06:58:09.242Z,29.33
2023-03-16T07:00:58.148Z,31.83
2023-03-16T07:03:47.002Z,31.70
2023-03-16T07:06:45.176Z,26.97
2023-03-16T07:09:37.839Z,34.23
2023-03-16T07:12:27.513Z,31.47
2023-03-16T07:15:16.607Z,30.13
2023-03-16T07:18:05.616Z,29.67
2023-03-16T07:20:55.323Z,26.50
2023-03-16T07:23:48.765Z,33.43
2023-03-16T07:26:43.368Z,33.10
2023-03-16T07:29:35.926Z,36.47
2023-03-16T07:32:26.176Z,27.00
2023-03-16T07:35:15.008Z,30.87
2023-03-16T07:38:03.853Z,23.87
2023-03-16T07:40:54.097Z,22.93
2023-03-16T07:43:45.378Z,24.47
2023-03-16T07:46:36.258Z,28.73
2023-03-16T07:49:25.181Z,25.73
2023-03-16T07:52:16.261Z,28.13
2023-03-16T07:55:06.724Z,22.60
2023-03-16T07:57:56.895Z,21.80
2023-03-16T08:00:51.946Z,19.77
2023-03-16T08:03:42.255Z,23.27
2023-03-16T08:06:31.293Z,22.60
2023-03-16T08:09:20.083Z,22.27
2023-03-16T08:12:10.393Z,20.90
2023-03-16T08:15:00.593Z,19.93
2023-03-16T08:17:52.817Z,20.77
2023-03-16T08:20:46.042Z,21.13
2023-03-16T08:23:36.240Z,17.63
2023-03-16T08:26:27.322Z,20.37
2023-03-16T08:29:21.250Z,17.77
2023-03-16T08:32:12.466Z,19.33
2023-03-16T08:35:05.887Z,21.60
2023-03-16T08:37:55.608Z,24.08
2023-03-16T08:40:48.626Z,19.55
2023-03-16T08:43:39.059Z,24.45
2023-03-16T08:46:27.939Z,26.08
2023-03-16T08:49:21.979Z,19.90
2023-03-16T08:52:19.578Z,20.90
2023-03-16T08:55:11.028Z,15.90
2023-03-16T08:58:00.081Z,11.90
2023-03-16T09:00:50.610Z,13.85
2023-03-16T09:03:40.750Z,17.05
2023-03-16T09:06:30.884Z,17.75
2023-03-16T09:09:19.703Z,15.25
2023-03-16T09:12:09.050Z,14.93
2023-03-16T09:14:57.820Z,18.25
2023-03-16T09:17:46.708Z,15.82
2023-03-16T09:20:35.973Z,15.75
2023-03-16T09:23:26.252Z,20.58
2023-03-16T09:26:15.422Z,22.08
2023-03-16T09:29:06.981Z,16.83
2023-03-16T09:31:56.058Z,16.23
2023-03-16T09:34:44.887Z,16.65
2023-03-16T09:37:44.609Z,14.27
2023-03-16T09:40:38.343Z,12.50
2023-03-16T09:43:43.363Z,10.63
2023-03-16T09:46:36.321Z,11.98
2023-03-16T09:49:28.917Z,11.07
2023-03-16T09:52:27.277Z,12.13
2023-03-16T09:55:30.419Z,14.93
2023-03-16T09:58:22.673Z,11.95
2023-03-16T10:01:20.132Z,9.40
2023-03-16T10:04:25.116Z,12.00
2023-03-16T10:07:24.589Z,17.08
2023-03-16T10:10:28.599Z,9.45
2023-03-16T10:13:29.486Z,7.80
2023-03-16T10:16:22.560Z,11.25
2023-03-16T10:19:14.916Z,12.70
2023-03-16T10:22:17.726Z,9.85
2023-03-16T10:25:13.062Z,9.02
2023-03-16T10:28:20.086Z,9.55
2023-03-16T10:31:13.025Z,8.32
2023-03-16T10:34:07.177Z,13.93
2023-03-16T10:36:56.924Z,12.18
2023-03-16T10:39:45.767Z,10.48
2023-03-16T10:42:38.005Z,10.25
2023-03-16T10:45:31.593Z,13.63
2023-03-16T10:48:22.880Z,6.60
2023-03-16T10:51:16.373Z,9.77
2023-03-16T10:54:11.981Z,10.45
2023-03-16T10:57:01.224Z,11.95
2023-03-16T10:59:51.799Z,13.73
2023-03-16T11:02:40.738Z,11.77
2023-03-16T11:05:34.191Z,10.20
2023-03-16T11:08:27.314Z,12.80
2023-03-16T11:11:19.272Z,9.70
2023-03-16T11:14:15.430Z,13.45
2023-03-16T11:17:09.549Z,14.20
2023-03-16T11:20:02.149Z,12.98
2023-03-16T11:22:52.694Z,11.38
2023-03-16T11:25:47.125Z,10.55
2023-03-16T11:28:39.261Z,10.18
2023-03-16T11:31:42.807Z,10.55
2023-03-16T11:34:33.519Z,9.30
2023-03-16T11:37:34.007Z,11.18
2023-03-16T11:40:38.676Z,12.20
2023-03-16T11:43:55.022Z,9.05
2023-03-16T11:46:52.947Z,11.75
2023-03-16T11:49:53.751Z,83.80
2023-03-16T11:52:53.275Z,13.93
2023-03-16T11:55:50.721Z,19.30
2023-03-16T11:58:54.280Z,14.27
2023-03-16T12:02:00.816Z,10.95
2023-03-16T12:05:01.921Z,14.63
2023-03-16T12:08:00.567Z,13.57
2023-03-16T12:10:54.311Z,11.65
2023-03-16T12:13:57.762Z,10.05
2023-03-16T12:16:50.316Z,14.32
2023-03-16T12:19:44.823Z,11.25
2023-03-16T12:22:39.206Z,15.25
2023-03-16T12:25:32.437Z,16.37
2023-03-16T12:28:26.364Z,10.77
2023-03-16T12:31:18.217Z,13.85
2023-03-16T12:34:18.677Z,10.23
2023-03-16T12:37:15.813Z,13.93
2023-03-16T12:40:25.826Z,14.35
2023-03-16T12:43:30.267Z,15.50
2023-03-16T12:46:30.462Z,12.02
2023-03-16T12:49:19.814Z,11.23
2023-03-16T12:52:11.569Z,12.57
2023-03-16T12:55:13.524Z,12.57
2023-03-16T12:58:06.543Z,18.35
2023-03-16T13:01:06.037Z,12.07
2023-03-16T13:04:02.643Z,11.73
2023-03-16T13:06:54.331Z,12.77
2023-03-16T13:09:48.427Z,17.20
2023-03-16T13:12:38.980Z,9.75
2023-03-16T13:15:31.795Z,12.50
2023-03-16T13:18:35.280Z,17.83
2023-03-16T13:21:36.794Z,16.55
2023-03-16T13:24:29.725Z,12.75
2023-03-16T13:27:24.176Z,12.45
2023-03-16T13:30:22.417Z,14.80
2023-03-16T13:33:20.880Z,16.05
2023-03-16T13:36:14.269Z,14.07
2023-03-16T13:39:08.427Z,12.07
2023-03-16T13:42:03.538Z,15.98
2023-03-16T13:44:55.063Z,12.05
2023-03-16T13:47:45.910Z,12.05
2023-03-16T13:50:35.733Z,12.52
2023-03-16T13:53:29.069Z,10.40
2023-03-16T13:56:22.515Z,12.85
2023-03-16T13:59:11.778Z,10.52
2023-03-16T14:02:03.174Z,11.95
2023-03-16T14:04:53.166Z,12.23
2023-03-16T14:07:42.090Z,11.52
2023-03-16T14:10:34.945Z,12.32
2023-03-16T14:13:39.595Z,11.30
2023-03-16T14:16:32.334Z,12.27
2023-03-16T14:19:25.880Z,14.05
2023-03-16T14:22:19.370Z,11.10
2023-03-16T14:25:09.044Z,9.00
2023-03-16T14:28:07.499Z,12.32
2023-03-16T14:31:03.386Z,13.98
2023-03-16T14:34:02.538Z,11.05
2023-03-16T14:36:51.481Z,13.32
2023-03-16T14:39:40.765Z,13.57
2023-03-16T14:42:32.151Z,15.68
2023-03-16T14:45:22.795Z,12.68
2023-03-16T14:48:22.471Z,9.13
2023-03-16T14:51:15.640Z,14.63
2023-03-16T14:54:07.407Z,8.27
2023-03-16T14:57:00.267Z,12.50
2023-03-16T14:59:49.149Z,9.88
2023-03-16T15:02:40.916Z,9.00
2023-03-16T15:05:37.581Z,8.55
2023-03-16T15:08:28.765Z,14.70
2023-03-16T15:11:21.579Z,9.93
2023-03-16T15:14:35.620Z,9.85
2023-03-16T15:17:24.707Z,10.02
2023-03-16T15:20:16.701Z,8.52
2023-03-16T15:23:06.189Z,8.27
2023-03-16T15:26:00.630Z,10.57
2023-03-16T15:28:49.549Z,7.75
2023-03-16T15:31:38.197Z,16.73
2023-03-16T15:34:27.497Z,17.40
2023-03-16T15:37:20.005Z,12.82
2023-03-16T15:40:21.457Z,8.25
2023-03-16T15:43:12.546Z,10.35
2023-03-16T15:46:01.917Z,10.70
2023-03-16T15:48:50.660Z,9.80
2023-03-16T15:51:39.571Z,12.00
2023-03-16T15:54:31.159Z,9.17
2023-03-16T15:57:21.218Z,7.73
2023-03-16T16:00:27.953Z,7.37
2023-03-16T16:03:16.646Z,11.43
2023-03-16T16:06:11.126Z,9.03
2023-03-16T16:09:00.143Z,6.53
2023-03-16T16:11:51.558Z,9.90
2023-03-16T16:14:40.682Z,11.67
2023-03-16T16:17:48.006Z,9.00
2023-03-16T16:20:38.333Z,6.50
2023-03-16T16:23:27.983Z,8.80
2023-03-16T16:26:27.944Z,8.63
2023-03-16T16:29:24.167Z,9.10
2023-03-16T16:32:24.540Z,6.07
2023-03-16T16:35:15.281Z,9.37
2023-03-16T16:38:04.312Z,8.17
2023-03-16T16:40:55.098Z,6.67
2023-03-16T16:43:45.730Z,10.03
2023-03-16T16:46:40.351Z,7.77
2023-03-16T16:49:31.361Z,9.93
2023-03-16T16:52:21.061Z,7.40
2023-03-16T16:55:10.391Z,8.47
2023-03-16T16:57:59.198Z,14.30
2023-03-16T17:00:51.854Z,10.90
2023-03-16T17:03:42.932Z,8.47
2023-03-16T17:06:32.232Z,11.93
2023-03-16T17:09:21.277Z,11.80
2023-03-16T17:12:18.022Z,10.97
2023-03-16T17:15:25.957Z,8.40
2023-03-16T17:18:15.756Z,9.60
2023-03-16T17:21:10.479Z,7.97
2023-03-16T17:24:00.474Z,9.40
2023-03-16T17:26:52.427Z,12.37
2023-03-16T17:29:42.795Z,8.70
2023-03-16T17:32:32.474Z,11.10
2023-03-16T17:35:22.082Z,10.83
2023-03-16T17:38:19.150Z,9.67
2023-03-16T17:41:18.545Z,13.50
2023-03-16T17:44:12.168Z,17.53
2023-03-16T17:47:01.875Z,12.87
2023-03-16T17:49:51.523Z,10.50
2023-03-16T17:52:41.156Z,11.03
2023-03-16T17:55:35.480Z,11.80
2023-03-16T17:58:28.285Z,11.03
2023-03-16T18:01:17.750Z,10.60
2023-03-16T18:04:17.054Z,11.53
2023-03-16T18:07:12.718Z,8.87
2023-03-16T18:10:02.043Z,10.17
2023-03-16T18:12:57.573Z,13.50
2023-03-16T18:15:48.861Z,18.07
2023-03-16T18:18:39.763Z,10.93
2023-03-16T18:21:28.592Z,13.10
2023-03-16T18:24:19.734Z,9.27
2023-03-16T18:27:10.371Z,11.47
2023-03-16T18:30:01.293Z,13.60
2023-03-16T18:32:50.173Z,15.40
2023-03-16T18:35:39.404Z,10.23
2023-03-16T18:38:32.665Z,10.70
2023-03-16T18:41:24.076Z,12.53
2023-03-16T18:44:18.775Z,16.13
2023-03-16T18:47:18.658Z,15.83
2023-03-16T18:50:08.320Z,15.03
2023-03-16T18:53:01.100Z,12.17
2023-03-16T18:55:50.507Z,11.70
2023-03-16T18:58:42.443Z,11.83
2023-03-16T19:01:32.680Z,13.43
2023-03-16T19:04:25.620Z,11.80
2023-03-16T19:07:24.625Z,16.97
2023-03-16T19:10:23.924Z,13.00
2023-03-16T19:13:19.295Z,13.57
2023-03-16T19:16:16.039Z,24.50
2023-03-16T19:19:04.877Z,18.17
2023-03-16T19:21:58.008Z,15.37
2023-03-16T19:24:49.801Z,14.53
2023-03-16T19:27:39.296Z,16.77
2023-03-16T19:30:30.266Z,13.53
2023-03-16T19:33:22.241Z,10.87
2023-03-16T19:36:17.373Z,14.10
2023-03-16T19:39:07.769Z,14.27
2023-03-16T19:41:59.142Z,15.73
2023-03-16T19:44:50.405Z,16.67
2023-03-16T19:47:39.312Z,15.20
2023-03-16T19:50:30.596Z,13.90
2023-03-16T19:53:21.818Z,17.47
2023-03-16T19:56:17.228Z,16.60
2023-03-16T19:59:06.547Z,20.53
2023-03-16T20:01:55.646Z,20.00
2023-03-16T20:04:44.557Z,19.70
2023-03-16T20:07:38.305Z,18.13
2023-03-16T20:10:29.657Z,17.50
2023-03-16T20:13:20.372Z,22.13
2023-03-16T20:16:15.049Z,21.97
2023-03-16T20:19:15.729Z,19.17
2023-03-16T20:22:04.628Z,19.57
2023-03-16T20:24:54.657Z,17.90
2023-03-16T20:27:43.718Z,14.73
2023-03-16T20:30:34.797Z,18.47
2023-03-16T20:33:26.196Z,17.30
2023-03-16T20:36:16.348Z,15.87
2023-03-16T20:39:05.172Z,21.07
2023-03-16T20:41:53.984Z,16.90
2023-03-16T20:44:42.782Z,16.63
2023-03-16T20:47:33.085Z,15.30
2023-03-16T20:50:25.148Z,17.20
2023-03-16T20:53:13.962Z,17.40
2023-03-16T20:56:03.354Z,18.73
2023-03-16T20:58:56.210Z,17.47
2023-03-16T21:01:45.899Z,17.10
2023-03-16T21:04:36.167Z,20.50
2023-03-16T21:07:25.093Z,20.47
2023-03-16T21:10:17.075Z,21.13
2023-03-16T21:13:06.545Z,26.20
2023-03-16T21:15:57.508Z,19.23
2023-03-16T21:18:46.681Z,24.50
2023-03-16T21:21:37.610Z,24.27
2023-03-16T21:24:27.354Z,22.73
2023-03-16T21:27:21.834Z,18.33
2023-03-16T21:30:22.561Z,20.80
2023-03-16T21:33:19.112Z,21.80
2023-03-16T21:36:14.885Z,24.40
2023-03-16T21:39:19.575Z,23.97
2023-03-16T21:42:08.542Z,25.70
2023-03-16T21:44:57.468Z,27.00
2023-03-16T21:47:47.182Z,24.57
2023-03-16T21:50:38.462Z,28.37
2023-03-16T21:53:29.376Z,29.90
2023-03-16T21:56:22.890Z,29.47
2023-03-16T21:59:11.932Z,27.87
2023-03-16T22:02:02.407Z,28.30
2023-03-16T22:04:53.061Z,30.30
2023-03-16T22:07:42.310Z,37.53
2023-03-16T22:10:32.056Z,32.13
2023-03-16T22:13:22.303Z,30.20
2023-03-16T22:16:15.809Z,35.17
2023-03-16T22:19:04.926Z,31.83
2023-03-16T22:21:53.736Z,33.47
2023-03-16T22:24:42.684Z,39.77
2023-03-16T22:27:31.511Z,39.67
2023-03-16T22:30:24.282Z,36.00
2023-03-16T22:33:17.957Z,33.83
2023-03-16T22:36:09.372Z,37.30
2023-03-16T22:39:01.046Z,32.13
2023-03-16T22:41:49.993Z,35.87
2023-03-16T22:44:38.722Z,35.67
2023-03-16T22:47:32.370Z,33.93
2023-03-16T22:50:22.497Z,36.23
2023-03-16T22:53:18.579Z,38.43
2023-03-16T22:56:07.859Z,38.07
2023-03-16T22:59:02.714Z,37.83
2023-03-16T23:01:51.958Z,39.87
2023-03-16T23:04:42.310Z,37.90
2023-03-16T23:07:34.411Z,37.13
2023-03-16T23:10:28.310Z,37.20
2023-03-16T23:13:19.871Z,37.73
2023-03-16T23:16:19.119Z,31.73
2023-03-16T23:19:24.699Z,37.50
2023-03-16T23:22:15.775Z,38.80
2023-03-16T23:25:04.606Z,33.77
2023-03-16T23:27:54.040Z,39.13
2023-03-16T23:30:42.854Z,34.37
2023-03-16T23:33:32.150Z,39.90
2023-03-16T23:36:22.434Z,36.50
2023-03-16T23:39:13.240Z,38.87
2023-03-16T23:42:02.462Z,37.80
2023-03-16T23:44:51.159Z,38.40
2023-03-16T23:47:40.139Z,40.03
2023-03-16T23:50:31.499Z,42.33
2023-03-16T23:53:21.365Z,42.17
2023-03-16T23:56:12.984Z,38.40
2023-03-16T23:59:01.690Z,43.50
